Latest Coastal Weather Observations for Port Augusta

IDS60701

Issued at 8:21 am CST Tuesday 25 July 2017 (issued every 10 minutes, with the page automatically refreshed every 10 minutes)

About coastal observations | Map of coastal stations | Coastal observations for SA | Marine services | Other Formats
Station Details ID: 018201 Name: PORT AUGUSTA AERO Lat: -32.51 Lon: 137.72 Height: 13.97 m
Data from the previous 72 hours. | See also: Recent months at Port Augusta
Date/Time
CST
Temp
°C
Wind Pressure Rain since
9am
mm
Weather Cloud Vis
km
Sea
Height
m
Swell
Dir  Spd
kts
Gust
kts
hPa Trend Height
m
Period
s
Dir
25/08:00am 11.0 NW 7 9 1020.3 - 0.0 - - 10 - - - -
25/07:30am 9.1 WNW 9 10 1020.1 - 0.0 - - 10 - - - -
25/07:00am 7.5 WSW 11 13 1019.9 - 0.0 - - 10 - - - -
25/06:30am 6.8 W 9 10 1019.2 - 0.0 - - 10 - - - -
25/06:00am 6.7 W 7 9 1018.9 - 0.0 - - 10 - - - -
25/05:30am 5.6 W 7 8 1018.8 - 0.0 - - 10 - - - -
25/05:00am 6.7 WSW 7 10 1018.8 - 0.0 - - 10 - - - -
25/04:30am 5.2 WSW 7 9 1018.9 - 0.0 - - 10 - - - -
25/04:00am 4.1 WSW 8 10 1019.0 - 0.0 - - 10 - - - -
25/03:30am 5.1 WSW 4 5 1019.0 - 0.0 - - 10 - - - -
25/03:00am 6.0 WSW 5 6 1019.2 - 0.0 - - 10 - - - -
25/02:30am 6.8 WSW 5 6 1019.3 - 0.0 - - 10 - - - -
25/02:00am 8.4 NW 7 8 1019.3 - 0.0 - - 10 - - - -
25/01:30am 6.7 W 5 6 1019.3 - 0.0 - - 10 - - - -
25/01:00am 9.2 NW 7 7 1019.2 - 0.0 - - 10 - - - -
25/12:30am 7.7 W 7 7 1019.1 - 0.0 - - 10 - - - -
25/12:00am 7.9 WNW 7 7 1019.1 - 0.0 - - 10 - - - -
 
Date/Time
CST
Temp
°C
Wind Pressure Rain since
9am
mm
Weather Cloud Vis
km
Sea
Height
m
Swell
Dir  Spd
kts
Gust
kts
hPa Trend Height
m
Period
s
Dir
24/11:30pm 8.5 NW 6 8 1019.2 - 0.0 - - 10 - - - -
24/11:00pm 8.8 WNW 7 9 1019.4 - 0.0 - - 10 - - - -
24/10:30pm 8.4 WNW 7 8 1019.3 - 0.0 - - 10 - - - -
24/10:00pm 9.6 W 6 7 1019.3 - 0.0 - - 10 - - - -
24/09:30pm 8.6 W 6 8 1019.4 - 0.0 - - 10 - - - -
24/09:00pm 9.4 SW 4 6 1019.4 - 0.0 - - 10 - - - -
24/08:30pm 10.4 SSW 4 5 1019.4 - 0.0 - - 10 - - - -
24/08:00pm 10.6 N 1 3 1019.4 - 0.0 - - 10 - - - -
24/07:30pm 13.6 N 5 5 1019.4 - 0.0 - - 10 - - - -
24/07:00pm 14.7 N 6 7 1019.4 - 0.0 - - 10 - - - -
24/06:30pm 15.5 N 8 9 1019.3 - 0.0 - - 10 - - - -
24/06:00pm 17.9 NNW 9 11 1018.9 - 0.0 - Mostly clear 10 - - - -
24/05:30pm 19.5 NNW 10 13 1018.6 - 0.0 - Partly cloudy 10 - - - -
24/05:00pm 21.2 NNW 12 15 1018.5 - 0.0 - Partly cloudy 10 - - - -
24/04:30pm 22.5 N 13 17 1018.3 - 0.0 - Partly cloudy 10 - - - -
24/04:00pm 22.9 N 13 16 1018.4 - 0.0 - Partly cloudy 10 - - - -
24/03:30pm 23.2 N 12 17 1018.6 - 0.0 - - 10 - - - -
24/03:00pm 22.7 N 11 17 1018.8 - 0.0 - - 10 - - - -
24/02:30pm 22.7 N 10 16 1019.0 - 0.0 - - 10 - - - -
24/02:00pm 22.1 N 9 13 1019.4 - 0.0 - - 10 - - - -
24/01:30pm 21.0 N 10 12 1020.0 - 0.0 - Partly cloudy 10 - - - -
24/01:00pm 21.6 N 11 15 1020.7 - 0.0 - Partly cloudy 10 - - - -
24/12:30pm 21.4 N 13 17 1021.4 - 0.0 - Partly cloudy 10 - - - -
24/12:00pm 20.9 N 13 17 1022.2 - 0.0 - - 10 - - - -
24/11:30am 20.3 N 13 18 1022.7 - 0.0 - - 10 - - - -
24/11:00am 18.8 NW 9 13 1023.0 - 0.0 - - 10 - - - -
24/10:30am 16.3 NW 8 11 1023.4 - 0.0 - - 10 - - - -
24/10:00am 14.2 NW 5 7 1023.2 - 0.0 - - 10 - - - -
24/09:30am 11.8 W 3 4 1023.1 - 0.0 - - 10 - - - -
24/09:00am 8.8 WNW 1 4 1023.0 - 0.0 - - 10 - - - -
24/08:30am 5.9 CALM 0 0 1023.1 - 0.0 - - 10 - - - -
24/08:00am 3.0 CALM 0 0 1023.0 - 0.0 - - 10 - - - -
24/07:30am 1.8 W 3 4 1022.9 - 0.0 - - 10 - - - -
24/07:00am 1.3 W 4 5 1022.8 - 0.0 - - 10 - - - -
24/06:30am 1.0 WSW 3 4 1022.2 - 0.0 - - 10 - - - -
24/06:00am 1.0 WNW 4 5 1021.9 - 0.0 - - 10 - - - -
24/05:30am 1.8 WNW 3 4 1021.7 - 0.0 - - 10 - - - -
24/05:00am 1.9 W 2 3 1021.5 - 0.0 - - 10 - - - -
24/04:30am 2.1 NW 2 4 1021.4 - 0.0 - - 10 - - - -
24/04:00am 2.6 CALM 0 3 1021.7 - 0.0 - - 10 - - - -
24/03:30am 2.9 SW 3 5 1021.6 - 0.0 - - 10 - - - -
24/03:00am 3.4 SW 4 5 1021.7 - 0.0 - - 10 - - - -
24/02:30am 3.2 WSW 4 5 1021.9 - 0.0 - - 10 - - - -
24/02:00am 3.5 CALM 0 0 1021.9 - 0.0 - - 10 - - - -
24/01:30am 3.2 CALM 0 0 1021.9 - 0.0 - - 10 - - - -
24/01:00am 4.1 SW 4 5 1022.0 - 0.0 - - 10 - - - -
24/12:30am 5.1 SSE 4 5 1021.9 - 0.0 - - 10 - - - -
24/12:00am 5.4 SSE 5 5 1021.9 - 0.0 - - 10 - - - -
 
Date/Time
CST
Temp
°C
Wind Pressure Rain since
9am
mm
Weather Cloud Vis
km
Sea
Height
m
Swell
Dir  Spd
kts
Gust
kts
hPa Trend Height
m
Period
s
Dir
23/11:30pm 5.6 S 4 5 1022.1 - 0.0 - - 10 - - - -
23/11:00pm 5.5 SW 4 4 1022.0 - 0.0 - - 10 - - - -
23/10:30pm 6.2 SSE 2 3 1022.1 - 0.0 - - 10 - - - -
23/10:00pm 8.3 NE 1 3 1022.0 - 0.0 - - 10 - - - -
23/09:30pm 8.3 NNE 1 4 1021.9 - 0.0 - - 10 - - - -
23/09:00pm 9.7 ESE 5 7 1021.6 - 0.0 - - 10 - - - -
23/08:30pm 12.7 SSE 6 9 1021.3 - 0.0 - - 10 - - - -
23/08:00pm 12.0 SE 7 9 1020.9 - 0.0 - - 10 - - - -
23/07:30pm 12.1 SSE 8 11 1020.5 - 0.0 - - 10 - - - -
23/07:00pm 12.6 SSE 6 7 1020.1 - 0.0 - - 10 - - - -
23/06:30pm 14.2 SSE 4 5 1019.7 - 0.0 - - 10 - - - -
23/06:00pm 14.6 SW 5 7 1019.1 - 0.0 - - 10 - - - -
23/05:30pm 16.8 SW 8 11 1019.0 - 0.0 - - 10 - - - -
23/05:00pm 19.0 SW 9 12 1018.9 - 0.0 - - 10 - - - -
23/04:30pm 19.8 SW 10 13 1018.8 - 0.0 - - 10 - - - -
23/04:00pm 20.0 SW 10 14 1018.9 - 0.0 - - 10 - - - -
23/03:30pm 20.2 SW 11 16 1018.9 - 0.0 - - 10 - - - -
23/03:00pm 20.1 SW 10 17 1018.9 - 0.0 - - 10 - - - -
23/02:30pm 20.1 SW 9 15 1019.2 - 0.0 - - 10 - - - -
23/02:00pm 19.6 WSW 14 18 1019.3 - 0.0 - - 10 - - - -
23/01:30pm 19.7 WSW 12 17 1019.5 - 0.0 - - 10 - - - -
23/01:00pm 19.0 W 9 14 1019.7 - 0.0 - - 10 - - - -
23/12:30pm 19.1 W 9 13 1020.3 - 0.0 - - 10 - - - -
23/12:00pm 18.0 W 11 15 1020.8 - 0.0 - Mostly clear 10 - - - -
23/11:30am 17.6 WSW 10 12 1021.3 - 0.0 - Partly cloudy 10 - - - -
23/11:00am 16.8 WSW 10 12 1021.7 - 0.0 - Partly cloudy 10 - - - -
23/10:30am 16.0 W 6 8 1021.8 - 0.0 - - 10 - - - -
23/10:00am 14.4 NNW 5 7 1021.7 - 0.0 - - 10 - - - -
23/09:30am 12.2 NNE 5 6 1021.5 - 0.0 - - 10 - - - -
23/09:00am 10.3 N 7 8 1021.1 - 0.0 - - 10 - - - -
23/08:30am 7.6 N 5 7 1021.1 - 0.0 - - 10 - - - -
23/08:00am 4.5 NNW 3 5 1020.5 - 0.0 - - 10 - - - -
23/07:30am 1.6 WNW 3 4 1020.1 - 0.0 - - 10 - - - -
23/07:00am 2.2 WNW 7 8 1019.9 - 0.0 - - 10 - - - -
23/06:30am 2.0 NW 5 6 1019.3 - 0.0 - - 10 - - - -
23/06:00am 2.8 W 3 4 1019.2 - 0.0 - - 10 - - - -
23/05:30am 2.2 SW 6 7 1018.8 - 0.0 - - 10 - - - -
23/05:00am 2.4 SW 5 7 1018.7 - 0.0 - - 10 - - - -
23/04:30am 2.5 SW 7 8 1018.6 - 0.0 - - 10 - - - -
23/04:00am 3.3 SW 4 6 1018.4 - 0.0 - - 10 - - - -
23/03:30am 3.6 SW 5 6 1018.4 - 0.0 - - 10 - - - -
23/03:00am 3.6 WSW 5 6 1018.5 - 0.0 - - 10 - - - -
23/02:30am 3.6 WSW 4 5 1018.5 - 0.0 - - 10 - - - -
23/02:00am 4.4 WSW 4 5 1018.4 - 0.0 - - 10 - - - -
23/01:30am 5.4 WNW 3 4 1018.5 - 0.0 - - 10 - - - -
23/01:00am 6.8 N 5 5 1018.4 - 0.0 - - 10 - - - -
23/12:30am 6.1 N 5 6 1018.2 - 0.0 - - 10 - - - -
23/12:00am 9.0 WNW 7 9 1018.2 - 0.0 - - 10 - - - -
 
Date/Time
CST
Temp
°C
Wind Pressure Rain since
9am
mm
Weather Cloud Vis
km
Sea
Height
m
Swell
Dir  Spd
kts
Gust
kts
hPa Trend Height
m
Period
s
Dir
22/11:30pm 7.1 WNW 9 10 1018.2 - 0.0 - - 10 - - - -
22/11:00pm 8.1 W 8 9 1017.9 - 0.0 - - 10 - - - -
22/10:30pm 8.4 W 6 6 1017.5 - 0.0 - - 10 - - - -
22/10:00pm 8.9 W 7 7 1017.4 - 0.0 - - 10 - - - -
22/09:30pm 9.8 WNW 7 7 1017.2 - 0.0 - - 10 - - - -
22/09:00pm 10.5 WNW 6 7 1017.2 - 0.0 - - 10 - - - -
22/08:30pm 15.0 NNW 9 13 1016.9 - 0.0 - - 10 - - - -
22/08:00pm 13.8 NW 7 8 1016.8 - 0.0 - - 10 - - - -
22/07:30pm 13.5 WNW 6 8 1016.8 - 0.0 - - 10 - - - -
22/07:00pm 14.3 N 8 10 1016.4 - 0.0 - - 10 - - - -
22/06:30pm 15.3 N 9 11 1016.3 - 0.0 - - 10 - - - -
22/06:00pm 17.1 N 11 15 1015.7 - 0.0 - Mostly clear 10 - - - -
22/05:30pm 18.4 N 13 17 1015.4 - 0.0 - - 10 - - - -
22/05:00pm 19.9 N 16 21 1015.2 - 0.0 - - 10 - - - -
22/04:30pm 20.7 N 17 22 1015.3 - 0.0 - - 10 - - - -
22/04:00pm 21.2 N 18 23 1015.3 - 0.0 - - 10 - - - -
22/03:30pm 21.4 N 18 23 1015.6 - 0.0 - - 10 - - - -
22/03:00pm 21.2 N 18 25 1015.7 - 0.0 - - 10 - - - -
22/02:30pm 20.7 N 18 25 1015.7 - 0.0 - - 10 - - - -
22/02:00pm 20.3 N 19 25 1016.6 - 0.0 - - 10 - - - -
22/01:30pm 19.6 N 19 25 1017.2 - 0.0 - - 10 - - - -
22/01:00pm 19.1 N 19 26 1017.9 - 0.0 - - 10 - - - -
22/12:30pm 18.8 NNW 19 26 1018.6 - 0.0 - - 10 - - - -
22/12:00pm 18.2 N 23 30 1019.0 - 0.0 - - 10 - - - -
22/11:30am 17.3 NNW 23 30 1019.5 - 0.0 - Partly cloudy 10 - - - -
22/11:21am 17.4 N 19 29 1019.7 - 0.0 - Partly cloudy 10 - - - -
22/11:00am 16.6 N 21 27 1020.1 - 0.0 - Partly cloudy 10 - - - -
22/10:30am 16.2 NNW 19 25 1020.5 - 0.0 - Partly cloudy 10 - - - -
22/10:00am 16.4 NNW 17 24 1020.9 - 0.0 - Partly cloudy 10 - - - -
22/09:30am 15.1 N 19 26 1020.6 - 0.0 - Partly cloudy 10 - - - -
22/09:00am 13.6 NNW 15 19 1020.8 - 0.0 - Mostly clear 10 - - - -
22/08:30am 11.5 NNW 13 15 1020.6 - 0.0 - Partly cloudy 10 - - - -

Other Formats:

Comma delimited format used in spreadsheet applications
http://www.bom.gov.au/fwo/IDS60701/IDS60701.95666.axf

JavaScript Object Notation format (JSON) in row-major order
http://www.bom.gov.au/fwo/IDS60701/IDS60701.95666.json